createdAt,value
2022-12-22T00:00:46.425Z,1.83
2022-12-22T00:03:32.525Z,2.45
2022-12-22T00:06:17.904Z,1.55
2022-12-22T00:09:05.759Z,1.90
2022-12-22T00:11:51.476Z,1.70
2022-12-22T00:14:36.388Z,2.10
2022-12-22T00:17:21.800Z,1.85
2022-12-22T00:20:06.846Z,1.60
2022-12-22T00:22:51.799Z,1.70
2022-12-22T00:25:36.919Z,1.80
2022-12-22T00:28:31.998Z,1.60
2022-12-22T00:31:17.376Z,1.42
2022-12-22T00:34:02.421Z,1.50
2022-12-22T00:36:47.799Z,1.55
2022-12-22T00:39:33.073Z,1.58
2022-12-22T00:42:17.975Z,1.50
2022-12-22T00:45:02.869Z,1.55
2022-12-22T00:47:49.227Z,1.73
2022-12-22T00:50:35.140Z,1.30
2022-12-22T00:53:21.315Z,1.30
2022-12-22T00:56:06.239Z,1.50
2022-12-22T00:58:51.063Z,1.15
2022-12-22T01:01:36.225Z,1.23
2022-12-22T01:04:21.386Z,1.15
2022-12-22T01:07:06.237Z,1.20
2022-12-22T01:09:51.083Z,1.10
2022-12-22T01:12:40.150Z,1.23
2022-12-22T01:15:34.513Z,1.05
2022-12-22T01:18:19.690Z,1.00
2022-12-22T01:21:05.147Z,0.93
2022-12-22T01:23:51.113Z,0.82
2022-12-22T01:26:36.145Z,0.90
2022-12-22T01:29:21.298Z,0.90
2022-12-22T01:32:06.489Z,0.93
2022-12-22T01:34:52.489Z,0.90
2022-12-22T01:37:37.613Z,0.88
2022-12-22T01:40:22.954Z,0.90
2022-12-22T01:43:07.880Z,0.80
2022-12-22T01:45:55.742Z,0.82
2022-12-22T01:48:46.088Z,0.80
2022-12-22T01:51:39.337Z,1.08
2022-12-22T01:54:25.930Z,0.90
2022-12-22T01:57:10.789Z,0.90
2022-12-22T01:59:55.528Z,1.10
2022-12-22T02:02:43.705Z,1.05
2022-12-22T02:05:32.179Z,0.90
2022-12-22T02:08:31.924Z,1.00
2022-12-22T02:11:37.005Z,1.08
2022-12-22T02:14:44.168Z,0.85
2022-12-22T02:17:48.240Z,1.08
2022-12-22T02:21:05.856Z,1.25
2022-12-22T02:24:24.112Z,1.42
2022-12-22T02:27:13.223Z,1.42
2022-12-22T02:30:06.204Z,1.48
2022-12-22T02:33:07.071Z,1.40
2022-12-22T02:36:04.357Z,1.52
2022-12-22T02:42:49.253Z,1.48
2022-12-22T02:45:43.437Z,1.60
2022-12-22T02:48:35.389Z,1.60
2022-12-22T02:51:27.217Z,2.25
2022-12-22T02:54:15.578Z,1.63
2022-12-22T02:57:02.458Z,1.50
2022-12-22T02:59:47.826Z,1.73
2022-12-22T03:02:32.827Z,1.40
2022-12-22T03:05:17.846Z,1.80
2022-12-22T03:08:08.011Z,1.60
2022-12-22T03:10:54.213Z,1.40
2022-12-22T03:13:39.371Z,1.38
2022-12-22T03:16:24.634Z,1.45
2022-12-22T03:19:09.763Z,1.35
2022-12-22T03:21:54.826Z,1.08
2022-12-22T03:24:39.701Z,1.15
2022-12-22T03:27:06.178Z,1.23
2022-12-22T03:29:32.613Z,1.30
2022-12-22T03:31:59.227Z,1.10
2022-12-22T03:34:25.721Z,1.17
2022-12-22T03:36:52.237Z,1.30
2022-12-22T03:39:18.640Z,1.00
2022-12-22T03:42:03.707Z,1.00
2022-12-22T03:44:48.595Z,0.95
2022-12-22T03:47:15.003Z,0.80
2022-12-22T03:49:44.142Z,1.25
2022-12-22T03:52:10.557Z,1.05
2022-12-22T03:54:36.979Z,0.80
2022-12-22T03:57:03.959Z,0.77
2022-12-22T03:59:30.365Z,0.98
2022-12-22T04:01:56.922Z,0.90
2022-12-22T04:04:25.573Z,0.70
2022-12-22T04:06:52.384Z,0.80
2022-12-22T04:09:18.807Z,1.08
2022-12-22T04:12:03.791Z,0.80
2022-12-22T04:14:34.216Z,0.90
2022-12-22T04:17:02.538Z,0.90
2022-12-22T04:19:29.277Z,1.00
2022-12-22T04:21:55.692Z,0.68
2022-12-22T04:24:22.407Z,0.80
2022-12-22T04:26:49.699Z,0.90
2022-12-22T04:29:16.149Z,0.82
2022-12-22T04:31:42.759Z,0.73
2022-12-22T04:34:09.230Z,0.80
2022-12-22T04:36:35.789Z,0.80
2022-12-22T04:39:02.263Z,0.60
2022-12-22T04:41:29.207Z,0.63
2022-12-22T04:43:55.657Z,0.90
2022-12-22T04:46:22.137Z,1.00
2022-12-22T04:48:50.990Z,0.73
2022-12-22T04:51:20.957Z,0.55
2022-12-22T04:53:47.416Z,0.68
2022-12-22T04:56:13.823Z,0.60
2022-12-22T04:58:40.283Z,0.73
2022-12-22T05:01:15.203Z,0.60
2022-12-22T05:03:42.224Z,0.65
2022-12-22T05:06:08.928Z,0.70
2022-12-22T05:08:35.599Z,0.90
2022-12-22T05:11:03.227Z,0.73
2022-12-22T05:13:31.050Z,0.65
2022-12-22T05:16:07.871Z,0.52
2022-12-22T05:18:35.658Z,0.73
2022-12-22T05:21:05.863Z,0.70
2022-12-22T05:23:32.491Z,0.60
2022-12-22T05:26:00.424Z,0.60
2022-12-22T05:28:26.898Z,0.43
2022-12-22T05:30:53.676Z,0.70
2022-12-22T05:33:20.860Z,0.60
2022-12-22T05:35:47.372Z,0.63
2022-12-22T05:38:13.810Z,0.60
2022-12-22T05:40:40.208Z,0.80
2022-12-22T05:43:06.744Z,0.70
2022-12-22T05:45:33.213Z,0.35
2022-12-22T05:47:59.608Z,0.40
2022-12-22T05:50:26.324Z,0.55
2022-12-22T05:52:54.358Z,0.45
2022-12-22T05:55:20.842Z,0.50
2022-12-22T05:57:47.233Z,0.60
2022-12-22T06:00:15.396Z,0.50
2022-12-22T06:02:43.740Z,0.38
2022-12-22T06:05:12.715Z,0.50
2022-12-22T06:07:39.572Z,0.45
2022-12-22T06:10:11.961Z,0.65
2022-12-22T06:12:40.463Z,0.30
2022-12-22T06:15:08.401Z,0.38
2022-12-22T06:17:39.113Z,0.43
2022-12-22T06:20:11.747Z,0.63
2022-12-22T06:22:41.253Z,0.40
2022-12-22T06:25:10.889Z,0.50
2022-12-22T06:27:41.995Z,0.68
2022-12-22T06:30:09.007Z,0.60
2022-12-22T06:32:39.639Z,0.40
2022-12-22T06:35:10.556Z,0.60
2022-12-22T06:37:37.139Z,0.50
2022-12-22T06:40:03.991Z,0.52
2022-12-22T06:42:49.373Z,0.60
2022-12-22T06:45:15.843Z,0.77
2022-12-22T06:47:42.587Z,0.40
2022-12-22T06:50:09.679Z,0.47
2022-12-22T06:52:36.135Z,0.65
2022-12-22T06:55:03.003Z,0.30
2022-12-22T06:57:29.934Z,0.47
2022-12-22T06:59:57.898Z,0.68
2022-12-22T07:02:27.850Z,0.50
2022-12-22T07:04:54.422Z,0.30
2022-12-22T07:07:20.857Z,0.40
2022-12-22T07:09:47.233Z,0.68
2022-12-22T07:12:13.684Z,1.50
2022-12-22T07:14:40.441Z,0.47
2022-12-22T07:17:07.010Z,0.50
2022-12-22T07:19:33.414Z,0.40
2022-12-22T07:21:59.863Z,0.40
2022-12-22T07:24:26.770Z,0.60
2022-12-22T07:26:53.295Z,0.88
2022-12-22T07:29:19.814Z,0.80
2022-12-22T07:31:46.600Z,0.40
2022-12-22T07:34:13.467Z,0.80
2022-12-22T07:36:40.161Z,0.50
2022-12-22T07:39:06.616Z,0.88
2022-12-22T07:41:51.584Z,0.45
2022-12-22T07:44:19.534Z,0.70
2022-12-22T07:46:46.194Z,0.70
2022-12-22T07:49:31.377Z,0.47
2022-12-22T07:51:58.884Z,1.05
2022-12-22T07:54:27.173Z,0.60
2022-12-22T07:56:53.963Z,0.52
2022-12-22T07:59:21.343Z,0.52
2022-12-22T08:01:48.347Z,1.35
2022-12-22T08:04:15.447Z,0.80
2022-12-22T08:06:42.389Z,0.50
2022-12-22T08:09:10.071Z,1.08
2022-12-22T08:11:36.453Z,1.13
2022-12-22T08:14:02.919Z,1.60
2022-12-22T08:16:29.601Z,1.08
2022-12-22T08:18:56.344Z,0.90
2022-12-22T08:21:22.774Z,1.15
2022-12-22T08:23:49.214Z,0.60
2022-12-22T08:26:27.864Z,0.70
2022-12-22T08:29:00.183Z,0.80
2022-12-22T08:31:30.154Z,1.65
2022-12-22T08:34:00.126Z,1.35
2022-12-22T08:36:26.909Z,1.08
2022-12-22T08:38:53.411Z,0.90
2022-12-22T08:41:39.955Z,0.63
2022-12-22T08:44:06.324Z,0.55
2022-12-22T08:46:32.802Z,0.80
2022-12-22T08:48:59.319Z,0.60
2022-12-22T08:51:25.748Z,0.88
2022-12-22T08:54:07.461Z,1.02
2022-12-22T08:56:37.037Z,0.60
2022-12-22T08:59:05.524Z,0.73
2022-12-22T09:01:35.451Z,0.93
2022-12-22T09:04:03.190Z,1.42
2022-12-22T09:06:34.802Z,1.20
2022-12-22T09:09:09.609Z,1.27
2022-12-22T09:11:37.532Z,0.57
2022-12-22T09:14:04.942Z,1.50
2022-12-22T09:16:33.349Z,1.30
2022-12-22T09:19:00.422Z,1.70
2022-12-22T09:21:27.965Z,1.10
2022-12-22T09:23:55.172Z,0.73
2022-12-22T09:26:23.690Z,0.80
2022-12-22T09:28:50.949Z,1.10
2022-12-22T09:31:18.942Z,0.70
2022-12-22T09:33:45.506Z,1.40
2022-12-22T09:36:17.906Z,1.13
2022-12-22T09:38:44.608Z,1.92
2022-12-22T09:41:34.991Z,0.80
2022-12-22T09:44:03.862Z,1.77
2022-12-22T09:46:33.955Z,0.88
2022-12-22T09:49:00.480Z,0.65
2022-12-22T09:51:27.671Z,1.10
2022-12-22T09:53:58.823Z,0.88
2022-12-22T09:56:27.156Z,1.02
2022-12-22T09:58:53.598Z,0.70
2022-12-22T10:01:48.582Z,0.80
2022-12-22T10:04:46.330Z,1.20
2022-12-22T10:07:32.679Z,1.10
2022-12-22T10:10:27.669Z,1.30
2022-12-22T10:13:14.167Z,4.13
2022-12-22T10:15:41.834Z,1.00
2022-12-22T10:18:12.446Z,0.82
2022-12-22T10:20:40.040Z,1.17
2022-12-22T10:23:20.771Z,1.00
2022-12-22T10:29:03.408Z,1.30
2022-12-22T10:31:33.875Z,0.80
2022-12-22T10:34:18.105Z,1.08
2022-12-22T10:36:49.277Z,1.15
2022-12-22T10:39:28.337Z,0.70
2022-12-22T10:41:59.926Z,0.65
2022-12-22T10:44:29.934Z,0.90
2022-12-22T10:47:16.963Z,1.08
2022-12-22T10:49:47.745Z,1.45
2022-12-22T10:52:27.368Z,1.60
2022-12-22T10:55:20.578Z,0.60
2022-12-22T10:57:47.303Z,4.35
2022-12-22T11:00:29.938Z,4.47
2022-12-22T11:03:01.778Z,0.65
2022-12-22T11:05:29.741Z,0.70
2022-12-22T11:07:57.555Z,0.50
2022-12-22T11:10:33.618Z,0.63
2022-12-22T11:13:54.687Z,0.40
2022-12-22T11:16:32.332Z,0.73
2022-12-22T11:19:07.392Z,0.63
2022-12-22T11:21:46.221Z,0.40
2022-12-22T11:24:50.089Z,0.60
2022-12-22T11:27:33.616Z,0.40
2022-12-22T11:30:13.240Z,0.25
2022-12-22T11:33:02.698Z,0.45
2022-12-22T11:35:51.419Z,0.45
2022-12-22T11:38:36.609Z,0.45
2022-12-22T11:41:38.464Z,0.50
2022-12-22T11:44:11.027Z,0.63
2022-12-22T11:46:42.189Z,0.75
2022-12-22T11:49:37.852Z,0.40
2022-12-22T11:52:25.272Z,0.68
2022-12-22T11:55:03.773Z,0.98
2022-12-22T11:57:52.028Z,0.70
2022-12-22T12:00:19.628Z,0.70
2022-12-22T12:03:07.373Z,0.60
2022-12-22T12:06:09.368Z,0.65
2022-12-22T12:08:57.322Z,0.55
2022-12-22T12:11:33.029Z,0.60
2022-12-22T12:14:18.881Z,0.50
2022-12-22T12:17:08.431Z,0.40
2022-12-22T12:20:00.931Z,0.77
2022-12-22T12:22:45.205Z,0.60
2022-12-22T12:25:28.538Z,0.40
2022-12-22T12:28:19.519Z,0.70
2022-12-22T12:30:56.599Z,0.57
2022-12-22T12:33:36.339Z,0.60
2022-12-22T12:36:14.294Z,0.80
2022-12-22T12:39:08.465Z,0.90
2022-12-22T12:41:51.518Z,1.00
2022-12-22T12:44:21.110Z,0.60
2022-12-22T12:46:50.338Z,0.50
2022-12-22T12:49:34.947Z,0.60
2022-12-22T12:52:04.256Z,0.90
2022-12-22T12:54:30.612Z,0.70
2022-12-22T12:57:09.887Z,0.65
2022-12-22T12:59:42.216Z,0.80
2022-12-22T13:02:27.122Z,0.90
2022-12-22T13:05:12.258Z,0.73
2022-12-22T13:08:06.686Z,0.60
2022-12-22T13:10:48.287Z,0.70
2022-12-22T13:13:23.955Z,1.88
2022-12-22T13:16:10.306Z,2.80
2022-12-22T13:18:49.605Z,0.90
2022-12-22T13:24:24.776Z,0.70
2022-12-22T13:26:57.588Z,0.70
2022-12-22T13:29:43.784Z,0.88
2022-12-22T13:32:16.423Z,0.90
2022-12-22T13:37:47.619Z,0.60
2022-12-22T13:40:13.973Z,0.60
2022-12-22T13:42:43.604Z,1.10
2022-12-22T13:45:29.393Z,0.77
2022-12-22T13:47:56.822Z,1.40
2022-12-22T13:50:26.933Z,0.80
2022-12-22T13:52:55.975Z,1.10
2022-12-22T13:55:28.292Z,0.93
2022-12-22T13:57:58.878Z,0.82
2022-12-22T14:00:27.354Z,0.95
2022-12-22T14:02:53.953Z,0.98
2022-12-22T14:05:21.191Z,0.60
2022-12-22T14:08:07.370Z,0.60
2022-12-22T14:10:42.416Z,0.80
2022-12-22T14:13:18.570Z,0.77
2022-12-22T14:15:45.404Z,0.80
2022-12-22T14:18:17.906Z,0.73
2022-12-22T14:20:47.142Z,1.10
2022-12-22T14:23:19.445Z,1.20
2022-12-22T14:25:47.225Z,1.00
2022-12-22T14:28:43.240Z,1.00
2022-12-22T14:31:14.071Z,1.00
2022-12-22T14:34:05.128Z,1.00
2022-12-22T14:36:46.002Z,1.00
2022-12-22T14:39:25.950Z,1.17
2022-12-22T14:41:55.806Z,0.90
2022-12-22T14:44:25.571Z,1.00
2022-12-22T14:47:17.433Z,1.20
2022-12-22T14:49:57.957Z,0.63
2022-12-22T14:52:43.013Z,0.90
2022-12-22T14:55:27.460Z,0.82
2022-12-22T14:58:01.137Z,0.90
2022-12-22T15:03:25.613Z,1.63
2022-12-22T15:05:52.841Z,1.10
2022-12-22T15:08:39.071Z,1.08
2022-12-22T15:11:15.630Z,0.70
2022-12-22T15:13:44.742Z,1.25
2022-12-22T15:16:22.936Z,1.13
2022-12-22T15:18:50.611Z,1.00
2022-12-22T15:21:18.786Z,1.05
2022-12-22T15:23:45.562Z,1.25
2022-12-22T15:26:12.779Z,1.40
2022-12-22T15:28:39.213Z,1.38
2022-12-22T15:31:14.522Z,1.83
2022-12-22T15:33:41.751Z,1.73
2022-12-22T15:36:14.759Z,1.17
2022-12-22T15:38:42.194Z,1.40
2022-12-22T15:41:08.644Z,1.60
2022-12-22T15:43:57.366Z,1.50
2022-12-22T15:46:24.756Z,1.42
2022-12-22T15:48:51.336Z,1.70
2022-12-22T15:51:28.158Z,1.52
2022-12-22T15:53:57.313Z,2.30
2022-12-22T15:56:25.691Z,2.45
2022-12-22T15:58:52.478Z,1.70
2022-12-22T16:01:19.007Z,1.60
2022-12-22T16:03:45.559Z,1.42
2022-12-22T16:06:19.004Z,2.10
2022-12-22T16:08:49.644Z,1.90
2022-12-22T16:11:17.176Z,1.90
2022-12-22T16:13:44.156Z,2.08
2022-12-22T16:16:12.136Z,2.63
2022-12-22T16:18:38.822Z,2.05
2022-12-22T16:21:11.458Z,2.28
2022-12-22T16:23:37.944Z,2.97
2022-12-22T16:26:05.335Z,2.38
2022-12-22T16:28:33.355Z,2.17
2022-12-22T16:31:00.982Z,2.70
2022-12-22T16:33:27.720Z,2.42
2022-12-22T16:35:54.153Z,2.20
2022-12-22T16:38:20.806Z,3.17
2022-12-22T16:40:50.529Z,2.78
2022-12-22T16:46:11.957Z,3.13
2022-12-22T16:48:46.239Z,3.03
2022-12-22T16:51:18.432Z,2.95
2022-12-22T16:53:45.134Z,3.30
2022-12-22T16:56:18.770Z,2.60
2022-12-22T16:58:46.116Z,2.72
2022-12-22T17:01:24.228Z,3.33
2022-12-22T17:03:50.873Z,2.95
2022-12-22T17:06:17.530Z,3.10
2022-12-22T17:08:44.752Z,3.40
2022-12-22T17:11:19.932Z,3.17
2022-12-22T17:13:46.445Z,2.83
2022-12-22T17:16:21.885Z,3.55
2022-12-22T17:18:49.952Z,3.50
2022-12-22T17:21:19.007Z,4.20
2022-12-22T17:23:50.582Z,3.90
2022-12-22T17:26:21.453Z,3.78
2022-12-22T17:28:49.510Z,3.80
2022-12-22T17:31:18.189Z,4.47
2022-12-22T17:33:44.978Z,3.97
2022-12-22T17:36:37.716Z,4.22
2022-12-22T17:39:04.671Z,4.20
2022-12-22T17:41:31.532Z,4.10
2022-12-22T17:43:57.980Z,3.90
2022-12-22T17:46:24.643Z,4.10
2022-12-22T17:48:51.184Z,3.83
2022-12-22T17:51:28.829Z,4.97
2022-12-22T17:53:58.040Z,3.88
2022-12-22T17:56:26.584Z,4.22
2022-12-22T17:58:53.562Z,4.50
2022-12-22T18:01:23.811Z,3.97
2022-12-22T18:03:50.776Z,4.28
2022-12-22T18:06:19.940Z,4.63
2022-12-22T18:08:46.953Z,4.60
2022-12-22T18:11:14.059Z,5.13
2022-12-22T18:13:40.904Z,5.20
2022-12-22T18:16:14.769Z,5.65
2022-12-22T18:18:42.056Z,6.13
2022-12-22T18:21:23.846Z,5.68
2022-12-22T18:23:51.658Z,5.00
2022-12-22T18:26:29.806Z,4.25
2022-12-22T18:28:56.730Z,4.72
2022-12-22T18:31:24.439Z,5.38
2022-12-22T18:33:51.792Z,4.75
2022-12-22T18:36:19.878Z,4.68
2022-12-22T18:38:47.991Z,4.57
2022-12-22T18:41:20.609Z,4.28
2022-12-22T18:43:47.249Z,4.15
2022-12-22T18:46:14.500Z,4.00
2022-12-22T18:48:41.277Z,5.43
2022-12-22T18:51:17.505Z,4.90
2022-12-22T18:53:44.189Z,6.00
2022-12-22T18:56:13.141Z,5.95
2022-12-22T18:58:41.380Z,5.75
2022-12-22T19:01:17.596Z,5.15
2022-12-22T19:03:45.638Z,6.32
2022-12-22T19:06:18.542Z,5.65
2022-12-22T19:08:47.303Z,8.40
2022-12-22T19:13:55.318Z,6.22
2022-12-22T19:16:30.110Z,5.63
2022-12-22T19:18:57.898Z,5.82
2022-12-22T19:21:24.405Z,6.07
2022-12-22T19:23:50.821Z,6.32
2022-12-22T19:26:23.718Z,6.30
2022-12-22T19:28:54.084Z,6.35
2022-12-22T19:31:42.570Z,6.60
2022-12-22T19:34:17.125Z,6.43
2022-12-22T19:36:43.710Z,6.07
2022-12-22T19:39:10.270Z,5.65
2022-12-22T19:41:49.145Z,6.47
2022-12-22T19:44:19.390Z,5.25
2022-12-22T19:46:47.326Z,4.55
2022-12-22T19:49:19.260Z,4.80
2022-12-22T19:51:46.599Z,5.10
2022-12-22T19:54:12.981Z,5.80
2022-12-22T19:56:39.900Z,5.07
2022-12-22T19:59:12.448Z,4.72
2022-12-22T20:01:39.010Z,4.45
2022-12-22T20:04:05.474Z,3.33
2022-12-22T20:06:31.872Z,3.60
2022-12-22T20:09:01.663Z,3.63
2022-12-22T20:11:28.151Z,4.03
2022-12-22T20:13:55.797Z,3.92
2022-12-22T20:16:22.393Z,4.30
2022-12-22T20:18:48.869Z,4.40
2022-12-22T20:21:25.654Z,3.88
2022-12-22T20:23:53.781Z,4.15
2022-12-22T20:26:24.958Z,3.63
2022-12-22T20:28:52.641Z,4.38
2022-12-22T20:31:22.227Z,4.22
2022-12-22T20:33:49.571Z,3.28
2022-12-22T20:36:22.937Z,3.50
2022-12-22T20:38:52.307Z,3.63
2022-12-22T20:41:19.956Z,3.03
2022-12-22T20:43:46.692Z,2.90
2022-12-22T20:46:19.681Z,4.28
2022-12-22T20:48:53.812Z,2.83
2022-12-22T20:51:21.429Z,2.40
2022-12-22T20:53:48.549Z,2.88
2022-12-22T20:56:20.518Z,4.10
2022-12-22T20:58:47.010Z,3.05
2022-12-22T21:01:13.849Z,2.70
2022-12-22T21:03:40.648Z,3.63
2022-12-22T21:06:29.334Z,4.82
2022-12-22T21:08:57.895Z,2.40
2022-12-22T21:11:25.159Z,3.15
2022-12-22T21:13:51.971Z,2.47
2022-12-22T21:16:23.725Z,3.35
2022-12-22T21:18:50.965Z,2.38
2022-12-22T21:21:17.338Z,2.38
2022-12-22T21:23:43.702Z,2.80
2022-12-22T21:26:34.183Z,2.38
2022-12-22T21:29:04.695Z,3.50
2022-12-22T21:31:31.148Z,2.88
2022-12-22T21:33:57.613Z,2.55
2022-12-22T21:36:29.704Z,2.47
2022-12-22T21:39:02.948Z,3.28
2022-12-22T21:41:48.077Z,2.45
2022-12-22T21:44:14.613Z,5.93
2022-12-22T21:46:46.871Z,3.63
2022-12-22T21:49:22.390Z,6.63
2022-12-22T21:51:50.625Z,3.78
2022-12-22T21:54:18.685Z,4.03
2022-12-22T21:56:45.259Z,3.60
2022-12-22T21:59:12.334Z,2.85
2022-12-22T22:01:41.096Z,2.60
2022-12-22T22:04:08.017Z,3.45
2022-12-22T22:06:34.451Z,3.22
2022-12-22T22:09:01.105Z,2.72
2022-12-22T22:11:27.732Z,2.83
2022-12-22T22:13:54.146Z,2.35
2022-12-22T22:16:20.836Z,2.80
2022-12-22T22:18:48.028Z,3.20
2022-12-22T22:21:16.214Z,2.72
2022-12-22T22:23:43.581Z,3.65
2022-12-22T22:26:10.579Z,2.90
2022-12-22T22:28:37.059Z,2.40
2022-12-22T22:31:10.422Z,3.47
2022-12-22T22:33:37.374Z,2.17
2022-12-22T22:36:07.786Z,2.10
2022-12-22T22:38:34.341Z,2.88
2022-12-22T22:41:01.909Z,2.97
2022-12-22T22:43:28.354Z,2.08
2022-12-22T22:45:54.764Z,2.67
2022-12-22T22:48:23.022Z,3.00
2022-12-22T22:50:50.469Z,3.15
2022-12-22T22:53:17.131Z,2.78
2022-12-22T22:55:43.501Z,2.65
2022-12-22T22:58:11.541Z,2.80
2022-12-22T23:00:39.076Z,3.70
2022-12-22T23:03:05.728Z,2.70
2022-12-22T23:05:32.196Z,2.63
2022-12-22T23:07:58.948Z,2.78
2022-12-22T23:10:25.472Z,2.53
2022-12-22T23:12:51.873Z,2.53
2022-12-22T23:15:18.573Z,2.80
2022-12-22T23:17:44.955Z,2.65
2022-12-22T23:20:11.457Z,2.50
2022-12-22T23:22:38.103Z,2.55
2022-12-22T23:25:04.916Z,2.25
2022-12-22T23:27:31.347Z,2.50
2022-12-22T23:29:57.771Z,1.98
2022-12-22T23:32:24.904Z,2.13
2022-12-22T23:34:52.041Z,2.00
2022-12-22T23:37:19.572Z,1.85
2022-12-22T23:39:46.796Z,2.00
2022-12-22T23:42:13.432Z,1.80
2022-12-22T23:44:39.848Z,2.90
2022-12-22T23:47:07.169Z,1.85
2022-12-22T23:49:33.599Z,2.45
2022-12-22T23:52:00.206Z,2.25
2022-12-22T23:54:26.634Z,2.45
2022-12-22T23:56:53.126Z,2.65
2022-12-22T23:59:19.523Z,2.25
